Terminal Aerodrome Forecast
Issued by NWS Atlanta, GA

Home | Current Version | Previous Version | Text Only | Print | Product List | Glossary On
Versions: 1 2 3 4 5 6 7 8 9 10 11 12 13 14 15 16 17 18 19 20 21 22 23 24 25 26 27 28 29 30 31 32 33 34 35 36 37 38 39 40 41 42
000
FTUS42 KFFC 231724
TAFATL
TAF
KATL 231724Z 2318/2424 24007KT P6SM VCSH SCT050
      TEMPO 2318/2322 VRB15G30KT 4SM TSRA BKN035CB
     FM240100 22004KT P6SM SCT150 BKN250
     FM241600 25006KT P6SM SCT040
     FM241800 22007KT P6SM VCSH SCT050 PROB30 2419/2422 4SM TSRA
      BKN040CB=

USA.gov is the U.S. government's official web portal to all federal, state and local government web resources and services.